Time;durP1;ratioP1;P1;durP2;ratioP2;P2;SDS_P1;SDS_P2;PMS_P1;PMS_P2;Temp;Humidity;BMP_temperature;BMP_pressure;BME280_temperature;BME280_humidity;BME280_pressure;Samples;Min_cycle;Max_cycle;Signal;HPM_P1;HPM_P2
2021/11/26 00:00:54;;;;;;;15.52;9.13;;;;;;;13.73;44.39;99801.09;4402913;32;20630;-69
2021/11/26 00:03:20;;;;;;;15.02;9.07;;;;;;;12.58;47.29;99799.16;4404246;32;20134;-69
2021/11/26 00:05:45;;;;;;;19.48;11.12;;;;;;;13.11;46.36;99774.81;4404903;32;20081;-69
2021/11/26 00:08:11;;;;;;;17.83;10.77;;;;;;;12.87;46.83;99769.09;4399974;32;20077;-69
2021/11/26 00:10:38;;;;;;;14.90;9.20;;;;;;;13.17;45.99;99770.06;4401897;32;20064;-69
2021/11/26 00:13:06;;;;;;;18.10;9.25;;;;;;;12.65;47.41;99764.94;4402309;32;20082;-69
2021/11/26 00:18:16;;;;;;;14.48;8.20;;;;;;;13.06;47.16;99733.09;3973889;32;15142682;-69
2021/11/26 00:20:44;;;;;;;12.70;7.47;;;;;;;13.06;47.16;99733.09;4435470;32;20647;-69
2021/11/26 00:23:09;;;;;;;12.35;6.70;;;;;;;12.51;47.50;99684.56;4434800;32;20167;-69
2021/11/26 00:25:36;;;;;;;9.93;5.10;;;;;;;12.16;48.50;99717.28;4432926;32;20041;-69
2021/11/26 00:28:02;;;;;;;11.93;4.12;;;;;;;12.22;48.49;99703.31;4433534;32;20033;-69
2021/11/26 00:30:28;;;;;;;11.60;4.18;;;;;;;12.15;48.64;99703.66;4435236;32;20037;-69
2021/11/26 00:32:54;;;;;;;10.60;4.18;;;;;;;12.15;48.70;99698.78;4436670;32;20419;-69
2021/11/26 00:35:19;;;;;;;12.05;4.65;;;;;;;12.47;48.02;99700.88;4434296;32;20511;-69
2021/11/26 00:37:45;;;;;;;11.55;4.90;;;;;;;12.25;48.74;99683.44;4434581;32;20463;-69
2021/11/26 00:40:12;;;;;;;8.35;4.30;;;;;;;12.12;48.88;99680.00;4436198;32;20114;-69
2021/11/26 00:42:39;;;;;;;12.98;4.25;;;;;;;12.27;48.86;99666.78;4433086;32;20098;-69
2021/11/26 00:45:06;;;;;;;12.07;3.80;;;;;;;12.36;48.71;99675.22;4434424;32;20417;-69
2021/11/26 00:47:31;;;;;;;9.35;3.78;;;;;;;12.16;49.60;99669.34;4431492;32;20068;-69
2021/11/26 00:49:57;;;;;;;11.60;3.92;;;;;;;12.12;49.80;99653.84;4431095;32;20029;-69
2021/11/26 00:52:23;;;;;;;8.45;3.60;;;;;;;12.26;49.45;99639.06;4432422;32;20397;-69
2021/11/26 00:54:49;;;;;;;8.15;3.80;;;;;;;12.43;48.98;99634.59;4433870;32;20056;-69
2021/11/26 00:57:15;;;;;;;13.90;3.65;;;;;;;12.58;48.60;99619.31;4435412;32;20077;-69
2021/11/26 00:59:41;;;;;;;12.60;3.20;;;;;;;12.45;48.84;99609.53;4434094;32;20071;-69
2021/11/26 01:02:08;;;;;;;12.85;2.60;;;;;;;12.86;48.02;99594.50;4438229;32;20065;-69
2021/11/26 01:04:34;;;;;;;8.68;2.30;;;;;;;12.73;47.99;99579.88;4434335;32;20049;-69
2021/11/26 01:06:59;;;;;;;12.05;2.40;;;;;;;13.03;47.78;99587.19;4432399;32;20048;-69
2021/11/26 01:09:27;;;;;;;11.02;2.78;;;;;;;12.94;47.53;99579.53;4431313;32;20084;-69
2021/11/26 01:11:53;;;;;;;10.13;2.12;;;;;;;13.02;47.29;99572.31;4434776;32;20021;-69
2021/11/26 01:14:23;;;;;;;8.27;2.33;;;;;;;13.00;47.07;99560.69;4434332;32;20100;-69
2021/11/26 01:16:50;;;;;;;9.20;1.95;;;;;;;12.81;47.48;99555.66;4435537;32;20556;-69
2021/11/26 01:19:16;;;;;;;13.45;2.17;;;;;;;13.28;46.18;99550.72;4432202;32;20055;-69
2021/11/26 01:21:41;;;;;;;6.30;1.95;;;;;;;13.45;45.84;99543.31;4436459;32;20422;-69
2021/11/26 01:24:07;;;;;;;8.98;1.92;;;;;;;13.41;46.12;99525.78;4435270;32;20333;-69
2021/11/26 01:26:33;;;;;;;9.88;2.30;;;;;;;13.32;45.99;99503.25;4434247;32;20097;-69
2021/11/26 01:28:59;;;;;;;10.50;2.03;;;;;;;13.20;46.59;99503.56;4422186;32;20100;-69
2021/11/26 01:31:25;;;;;;;18.30;2.58;;;;;;;13.38;46.35;99498.47;4426327;32;20053;-69
2021/11/26 01:33:53;;;;;;;12.40;1.90;;;;;;;13.18;46.85;99487.09;4425641;32;20356;-69
2021/11/26 01:36:19;;;;;;;8.63;1.90;;;;;;;13.17;46.96;99479.12;4417631;32;20137;-68
2021/11/26 01:38:45;;;;;;;10.00;3.08;;;;;;;13.09;47.02;99447.66;4414708;32;20060;-68
2021/11/26 01:41:11;;;;;;;13.23;2.08;;;;;;;13.33;46.31;99439.84;4423528;32;20034;-68
2021/11/26 01:43:40;;;;;;;10.93;1.70;;;;;;;13.66;46.10;99414.91;4427199;32;20085;-68
2021/11/26 01:46:08;;;;;;;12.85;2.10;;;;;;;13.60;46.27;99414.06;4424893;32;20464;-68
2021/11/26 01:48:37;;;;;;;8.82;1.73;;;;;;;13.99;45.50;99406.91;4422541;32;20076;-68
2021/11/26 01:51:04;;;;;;;12.70;2.35;;;;;;;14.24;45.15;99396.22;4423117;32;20069;-68
2021/11/26 01:53:30;;;;;;;15.13;2.37;;;;;;;13.69;45.80;99379.25;4424586;32;20501;-68
2021/11/26 01:55:56;;;;;;;7.22;1.40;;;;;;;13.63;46.47;99376.34;4423803;32;20034;-68
2021/11/26 01:58:22;;;;;;;13.70;2.05;;;;;;;13.68;46.55;99366.38;4422128;32;20176;-68
2021/11/26 02:00:50;;;;;;;7.68;1.75;;;;;;;13.92;46.27;99353.63;4424643;32;20037;-68
2021/11/26 02:03:16;;;;;;;7.32;1.52;;;;;;;13.76;46.29;99334.38;4423818;32;20073;-68
2021/11/26 02:05:43;;;;;;;8.30;1.85;;;;;;;13.40;47.35;99331.28;4427709;32;20126;-68
2021/11/26 02:08:09;;;;;;;12.20;1.60;;;;;;;13.27;47.96;99311.84;4423342;32;20065;-68
2021/11/26 02:10:36;;;;;;;8.07;1.67;;;;;;;13.44;47.92;99310.03;4422954;32;20096;-68
2021/11/26 02:13:02;;;;;;;7.35;1.48;;;;;;;13.48;47.89;99296.50;4423457;32;20443;-68
2021/11/26 02:15:29;;;;;;;6.78;1.10;;;;;;;13.40;47.92;99289.69;4423473;32;20470;-68
2021/11/26 02:17:57;;;;;;;6.62;1.37;;;;;;;12.80;49.71;99274.63;4422142;32;20116;-68
2021/11/26 02:20:26;;;;;;;4.82;1.58;;;;;;;13.28;48.65;99256.91;4422145;32;20124;-68
2021/11/26 02:22:54;;;;;;;10.45;1.42;;;;;;;13.70;47.69;99234.59;4421610;32;20728;-68
2021/11/26 02:25:21;;;;;;;3.53;1.17;;;;;;;13.41;48.50;99229.06;4423879;32;20026;-68
2021/11/26 02:27:50;;;;;;;7.37;1.40;;;;;;;13.39;48.46;99222.38;4423322;32;20393;-68
2021/11/26 02:30:16;;;;;;;5.62;0.93;;;;;;;13.17;49.45;99205.12;4423282;32;20080;-68
2021/11/26 02:32:45;;;;;;;5.12;1.00;;;;;;;12.83;50.15;99209.50;4422399;32;20069;-68
2021/11/26 02:35:12;;;;;;;6.55;0.95;;;;;;;13.01;50.09;99197.22;4423230;32;20029;-68
2021/11/26 02:37:39;;;;;;;1.67;0.57;;;;;;;13.08;49.58;99203.22;4424968;32;20045;-68
2021/11/26 02:40:07;;;;;;;3.30;1.00;;;;;;;12.93;50.06;99196.81;4421692;32;20144;-68
2021/11/26 02:42:35;;;;;;;1.80;0.57;;;;;;;12.97;49.72;99214.31;4425208;32;20022;-68
2021/11/26 02:45:03;;;;;;;4.68;0.80;;;;;;;13.37;49.00;99194.59;4424275;32;20082;-68
2021/11/26 02:47:28;;;;;;;4.80;0.60;;;;;;;13.35;48.98;99183.00;4421828;32;20392;-68
2021/11/26 02:49:54;;;;;;;1.73;0.52;;;;;;;13.00;49.58;99192.81;4424823;32;20045;-68
2021/11/26 02:52:19;;;;;;;2.05;0.77;;;;;;;13.25;48.93;99175.19;4427193;32;20435;-68
2021/11/26 02:54:45;;;;;;;2.12;0.60;;;;;;;13.43;48.70;99153.06;4424420;32;20049;-68
2021/11/26 02:57:11;;;;;;;3.25;0.60;;;;;;;13.05;49.59;99133.59;4422580;32;20094;-68
2021/11/26 02:59:37;;;;;;;2.83;0.80;;;;;;;12.83;50.17;99130.47;4420134;32;20129;-68
2021/11/26 03:02:03;;;;;;;4.97;0.70;;;;;;;13.29;49.52;99131.31;4427074;32;20066;-70
2021/11/26 03:04:29;;;;;;;2.35;0.70;;;;;;;12.87;50.69;99108.44;4422394;32;20451;-70
2021/11/26 03:07:05;;;;;;;5.53;0.68;;;;;;;12.95;50.92;99128.56;4423371;32;21037;-70
2021/11/26 03:09:31;;;;;;;2.90;0.93;;;;;;;13.31;50.81;99094.09;4422156;32;20073;-70
2021/11/26 03:11:57;;;;;;;3.50;0.77;;;;;;;12.68;52.04;99084.59;4426028;32;20180;-69
2021/11/26 03:14:23;;;;;;;5.07;0.70;;;;;;;12.76;51.92;99063.13;4422611;32;20088;-69
2021/11/26 03:16:48;;;;;;;3.08;0.90;;;;;;;12.58;52.79;99066.22;4424405;32;20495;-68
2021/11/26 03:19:14;;;;;;;3.58;0.65;;;;;;;12.93;52.18;99050.00;4421484;32;20403;-68
2021/11/26 03:21:40;;;;;;;1.62;0.68;;;;;;;13.00;52.07;99040.34;4424049;32;20042;-68
2021/11/26 03:24:07;;;;;;;6.12;1.08;;;;;;;12.55;53.08;99047.44;4423018;32;20334;-68
2021/11/26 03:26:33;;;;;;;4.18;1.02;;;;;;;12.73;53.17;99016.13;4416380;32;20077;-68
2021/11/26 03:28:58;;;;;;;5.30;1.45;;;;;;;12.52;53.44;99013.81;4419207;32;20386;-68
2021/11/26 03:31:24;;;;;;;7.35;2.33;;;;;;;12.86;52.71;99021.41;4426058;32;20034;-68
2021/11/26 03:33:50;;;;;;;2.78;1.10;;;;;;;12.84;53.13;99007.81;4421485;32;20056;-69
2021/11/26 03:36:16;;;;;;;4.07;1.23;;;;;;;12.69;53.50;98983.75;4421971;32;20118;-69
2021/11/26 03:38:42;;;;;;;8.90;1.45;;;;;;;12.37;53.97;98970.78;4419374;32;20073;-69
2021/11/26 03:41:08;;;;;;;6.40;2.03;;;;;;;12.80;53.37;98961.31;4418906;32;20382;-69
2021/11/26 03:43:34;;;;;;;4.62;1.35;;;;;;;13.06;52.72;98939.53;4422227;32;20065;-69
2021/11/26 03:45:59;;;;;;;5.95;1.15;;;;;;;12.57;53.99;98934.87;4421934;32;20078;-69
2021/11/26 03:48:25;;;;;;;4.87;1.23;;;;;;;12.86;53.73;98925.44;4421189;32;20025;-69
2021/11/26 03:50:51;;;;;;;6.85;1.20;;;;;;;13.14;52.75;98915.22;4417755;32;20038;-69
2021/11/26 03:53:17;;;;;;;4.12;0.93;;;;;;;12.97;53.22;98914.25;4423642;32;20072;-69
2021/11/26 03:55:42;;;;;;;3.17;1.10;;;;;;;12.98;53.30;98902.47;4421093;32;20089;-68
2021/11/26 03:58:08;;;;;;;5.60;1.30;;;;;;;13.08;53.33;98886.94;4421727;32;20025;-69
2021/11/26 04:00:34;;;;;;;6.37;1.40;;;;;;;12.89;53.61;98871.56;4421763;32;20104;-69
2021/11/26 04:03:00;;;;;;;8.05;1.33;;;;;;;12.90;54.11;98867.50;4425343;32;20029;-69
2021/11/26 04:05:26;;;;;;;4.35;1.60;;;;;;;13.01;53.31;98859.13;4423067;32;20082;-69
2021/11/26 04:07:52;;;;;;;5.35;1.35;;;;;;;12.98;53.76;98836.75;4420661;32;20117;-69
2021/11/26 04:10:20;;;;;;;8.80;1.50;;;;;;;12.77;54.14;98819.13;4422588;32;20130;-69
2021/11/26 04:12:48;;;;;;;6.65;1.92;;;;;;;13.04;53.82;98824.25;4421399;32;20030;-69
2021/11/26 04:15:15;;;;;;;5.62;1.50;;;;;;;12.74;54.59;98794.75;4422611;32;20033;-69
2021/11/26 04:17:42;;;;;;;6.60;1.50;;;;;;;12.93;54.11;98773.34;4423769;32;20045;-69
2021/11/26 04:20:09;;;;;;;4.07;1.35;;;;;;;12.84;54.23;98752.97;4423809;32;20034;-69
2021/11/26 04:22:35;;;;;;;8.65;1.48;;;;;;;13.02;53.94;98744.94;4416220;32;20077;-69
2021/11/26 04:25:01;;;;;;;4.00;1.20;;;;;;;12.85;54.14;98729.91;4419669;32;20349;-69
2021/11/26 04:27:27;;;;;;;4.15;1.20;;;;;;;12.61;54.63;98723.03;4420574;32;20056;-69
2021/11/26 04:29:53;;;;;;;4.78;1.20;;;;;;;13.00;53.77;98699.50;4418491;32;21114;-69
2021/11/26 04:32:19;;;;;;;2.42;1.15;;;;;;;12.76;54.37;98679.28;4422624;32;20060;-70
2021/11/26 04:34:45;;;;;;;5.93;1.73;;;;;;;13.18;53.72;98672.88;4421505;32;20062;-70
2021/11/26 04:37:11;;;;;;;5.95;1.70;;;;;;;12.87;54.26;98668.06;4422052;32;20403;-70
2021/11/26 04:39:37;;;;;;;4.75;1.77;;;;;;;12.79;54.73;98644.41;4421026;32;20026;-70
2021/11/26 04:42:03;;;;;;;6.00;1.75;;;;;;;13.11;54.23;98636.66;4419781;32;20069;-70
2021/11/26 04:44:29;;;;;;;3.20;1.50;;;;;;;12.57;55.40;98629.37;4422572;32;20078;-70
2021/11/26 04:46:54;;;;;;;2.97;1.50;;;;;;;12.70;54.79;98610.00;4413640;32;20073;-70
2021/11/26 04:49:20;;;;;;;1.98;1.25;;;;;;;13.01;54.51;98616.31;4417324;32;20030;-70
2021/11/26 04:51:46;;;;;;;3.33;1.10;;;;;;;13.06;54.45;98606.34;4423524;32;20087;-70
2021/11/26 04:54:11;;;;;;;2.22;0.90;;;;;;;13.03;54.33;98602.50;4419945;32;20069;-70
2021/11/26 04:56:37;;;;;;;1.80;0.70;;;;;;;12.79;55.01;98604.91;4417306;32;20033;-70
2021/11/26 04:59:02;;;;;;;2.60;0.68;;;;;;;12.96;54.69;98600.13;4418497;32;20115;-70
2021/11/26 05:01:28;;;;;;;2.70;0.50;;;;;;;12.86;54.83;98589.53;4417568;32;20099;-70
2021/11/26 05:03:54;;;;;;;3.00;0.60;;;;;;;12.77;54.86;98581.28;4421199;32;20098;-70
2021/11/26 05:06:21;;;;;;;1.98;0.60;;;;;;;12.99;54.50;98590.66;4417233;32;20739;-70
2021/11/26 05:08:47;;;;;;;1.67;0.52;;;;;;;13.17;54.56;98586.62;4419887;32;20046;-71
2021/11/26 05:11:12;;;;;;;2.03;0.70;;;;;;;13.03;54.80;98560.13;4421726;32;20146;-71
2021/11/26 05:13:43;;;;;;;4.70;1.00;;;;;;;13.30;54.58;98564.34;4422961;32;20101;-71
2021/11/26 05:16:10;;;;;;;4.95;0.90;;;;;;;13.37;54.57;98550.50;4416585;32;20060;-70
2021/11/26 05:18:36;;;;;;;4.97;1.65;;;;;;;13.06;54.78;98538.56;4423477;32;20077;-70
2021/11/26 05:21:01;;;;;;;6.50;1.87;;;;;;;12.98;55.13;98521.31;4423940;32;20406;-70
2021/11/26 05:23:27;;;;;;;3.90;1.70;;;;;;;13.49;54.12;98500.41;4420351;32;20550;-70
2021/11/26 05:25:53;;;;;;;2.90;1.50;;;;;;;13.05;55.12;98506.78;4420785;32;20160;-70
2021/11/26 05:28:19;;;;;;;5.57;1.75;;;;;;;13.23;55.21;98497.06;4417210;32;20137;-70
2021/11/26 05:30:45;;;;;;;2.97;1.20;;;;;;;13.27;54.56;98481.41;4425483;32;20060;-71
2021/11/26 05:33:11;;;;;;;1.55;0.90;;;;;;;13.29;54.79;98478.81;4422083;32;20033;-71
2021/11/26 05:35:37;;;;;;;2.92;0.88;;;;;;;13.43;54.49;98474.22;4426242;32;20080;-71
2021/11/26 05:38:04;;;;;;;4.78;0.90;;;;;;;13.25;54.59;98472.66;4422363;32;20126;-71
2021/11/26 05:40:29;;;;;;;4.35;0.90;;;;;;;13.70;53.89;98453.69;4421212;32;20531;-70
2021/11/26 05:42:55;;;;;;;6.40;0.88;;;;;;;13.69;53.96;98452.16;4424424;32;20034;-70
2021/11/26 05:45:21;;;;;;;1.77;0.82;;;;;;;13.95;53.59;98430.78;4425646;32;20037;-70
2021/11/26 05:47:48;;;;;;;1.83;0.60;;;;;;;13.66;53.66;98431.31;4423292;32;20100;-70
2021/11/26 05:50:17;;;;;;;2.05;0.70;;;;;;;14.01;53.50;98417.41;4424810;32;20073;-70
2021/11/26 05:52:44;;;;;;;5.10;0.68;;;;;;;14.00;53.76;98401.69;4425742;32;20073;-71
2021/11/26 05:55:13;;;;;;;1.20;0.70;;;;;;;13.41;54.57;98398.44;4424115;32;20214;-70
2021/11/26 05:57:39;;;;;;;2.47;0.47;;;;;;;13.62;54.52;98385.59;4424179;32;20079;-70
2021/11/26 06:00:09;;;;;;;2.00;1.12;;;;;;;13.94;53.65;98381.16;4423877;32;20174;-70
2021/11/26 06:02:35;;;;;;;2.42;0.82;;;;;;;14.03;53.69;98363.16;4423778;32;20126;-70
2021/11/26 06:05:00;;;;;;;3.22;0.73;;;;;;;13.85;53.98;98358.84;4425655;32;20375;-70
2021/11/26 06:07:26;;;;;;;3.20;0.70;;;;;;;14.35;52.93;98367.16;4421199;32;20034;-70
2021/11/26 06:09:52;;;;;;;2.35;1.10;;;;;;;14.06;53.84;98371.34;4423279;32;20077;-70
2021/11/26 06:12:18;;;;;;;3.90;1.02;;;;;;;13.71;54.80;98357.06;4424695;32;20428;-70
2021/11/26 06:14:44;;;;;;;2.67;1.48;;;;;;;14.16;53.74;98346.37;4421543;32;20082;-71
2021/11/26 06:17:10;;;;;;;3.95;1.67;;;;;;;13.96;54.78;98358.78;4422669;32;20046;-71
2021/11/26 06:19:35;;;;;;;4.57;2.87;;;;;;;14.26;53.68;98355.41;4422838;32;20050;-71
2021/11/26 06:22:01;;;;;;;4.47;3.22;;;;;;;13.92;54.23;98355.47;4420963;32;20506;-71
2021/11/26 06:24:27;;;;;;;7.25;3.30;;;;;;;14.07;54.13;98327.66;4422337;32;20064;-70
2021/11/26 06:26:53;;;;;;;3.50;2.55;;;;;;;14.26;54.06;98319.38;4423388;32;20509;-70
2021/11/26 06:29:19;;;;;;;3.50;2.72;;;;;;;14.35;53.87;98312.62;4418409;32;20037;-70
2021/11/26 06:31:44;;;;;;;3.58;2.67;;;;;;;14.24;53.41;98329.69;4424733;32;20077;-70
2021/11/26 06:34:10;;;;;;;5.10;2.90;;;;;;;14.24;53.85;98315.53;4424009;32;20102;-69
2021/11/26 06:36:37;;;;;;;8.10;3.60;;;;;;;14.48;53.60;98313.59;4428612;32;20064;-70
2021/11/26 06:39:04;;;;;;;4.60;3.50;;;;;;;14.44;53.69;98301.78;4421991;32;20085;-70
2021/11/26 06:41:30;;;;;;;4.07;3.50;;;;;;;14.59;53.53;98302.22;4420811;32;20130;-70
2021/11/26 06:43:56;;;;;;;3.95;3.25;;;;;;;14.70;53.22;98318.34;4419742;32;20098;-70
2021/11/26 06:46:22;;;;;;;4.40;2.10;;;;;;;14.65;53.30;98302.16;4420524;32;20355;-70
2021/11/26 06:48:48;;;;;;;7.10;1.60;;;;;;;14.31;54.03;98315.75;4419634;32;20437;-70
2021/11/26 06:51:13;;;;;;;4.78;1.67;;;;;;;14.69;53.26;98294.94;4423079;32;20457;-70
2021/11/26 06:53:39;;;;;;;1.95;0.90;;;;;;;14.62;53.22;98291.91;4422159;32;20026;-70
2021/11/26 06:56:05;;;;;;;3.55;0.90;;;;;;;14.43;53.74;98276.84;4423154;32;20141;-70
2021/11/26 06:58:30;;;;;;;4.25;0.73;;;;;;;14.94;52.81;98290.12;4423877;32;20440;-71
2021/11/26 07:00:57;;;;;;;3.35;0.57;;;;;;;15.08;51.93;98294.63;4419937;32;20073;-70
2021/11/26 07:03:23;;;;;;;1.77;0.40;;;;;;;14.86;52.79;98295.59;4422933;32;20091;-70
2021/11/26 07:05:49;;;;;;;5.15;0.75;;;;;;;15.12;52.45;98286.59;4420303;32;20758;-70
2021/11/26 07:08:16;;;;;;;5.97;0.70;;;;;;;15.00;52.41;98271.03;4422839;32;20034;-70
2021/11/26 07:10:42;;;;;;;11.50;1.27;;;;;;;14.90;52.72;98278.31;4425895;32;20060;-70
2021/11/26 07:13:08;;;;;;;10.20;1.30;;;;;;;14.98;52.07;98268.72;4423256;32;20370;-70
2021/11/26 07:15:34;;;;;;;9.85;0.90;;;;;;;15.40;51.10;98264.50;4420037;32;20448;-70
2021/11/26 07:18:00;;;;;;;8.25;1.37;;;;;;;15.24;51.10;98279.56;4422537;32;20428;-70
2021/11/26 07:20:26;;;;;;;8.73;1.42;;;;;;;15.45;50.91;98266.50;4421748;32;20037;-70
2021/11/26 07:22:52;;;;;;;10.75;1.10;;;;;;;15.32;51.67;98263.50;4422690;32;20380;-69
2021/11/26 07:25:20;;;;;;;10.77;1.02;;;;;;;15.54;50.99;98261.25;4421477;32;20119;-69
2021/11/26 07:27:46;;;;;;;11.63;1.42;;;;;;;15.64;50.97;98251.06;4422961;32;20463;-70
2021/11/26 07:30:13;;;;;;;12.55;1.58;;;;;;;15.42;50.69;98262.66;4422926;32;20070;-69
2021/11/26 07:32:39;;;;;;;6.22;0.70;;;;;;;15.65;50.23;98249.78;4422396;32;20074;-70
2021/11/26 07:35:06;;;;;;;11.23;1.73;;;;;;;15.43;50.47;98263.41;4421774;32;20057;-70
2021/11/26 07:37:35;;;;;;;16.52;1.52;;;;;;;15.47;50.00;98255.41;4421731;32;20025;-70
2021/11/26 07:40:04;;;;;;;15.02;1.98;;;;;;;15.46;49.36;98239.69;4420668;32;20073;-70
2021/11/26 07:42:30;;;;;;;10.00;1.65;;;;;;;15.95;48.49;98218.47;4423100;32;20032;-70
2021/11/26 07:44:55;;;;;;;7.65;1.12;;;;;;;15.92;48.26;98216.69;4418312;32;20056;-70
2021/11/26 07:47:21;;;;;;;6.32;0.90;;;;;;;15.77;48.37;98185.97;4421257;32;20104;-70
2021/11/26 07:49:52;;;;;;;6.87;1.50;;;;;;;15.69;48.02;98206.97;4417094;32;20112;-71
2021/11/26 07:52:19;;;;;;;9.88;1.05;;;;;;;16.06;47.62;98206.22;4419664;32;20100;-71
2021/11/26 07:54:45;;;;;;;14.65;1.35;;;;;;;16.02;47.51;98201.59;4415725;32;20077;-71
2021/11/26 07:57:11;;;;;;;9.48;1.20;;;;;;;16.06;47.42;98198.47;4423504;32;20448;-71
2021/11/26 07:59:37;;;;;;;9.05;1.05;;;;;;;15.53;48.56;98205.84;4415801;32;20163;-71
2021/11/26 08:02:04;;;;;;;11.73;1.05;;;;;;;15.29;49.26;98216.41;4413219;32;20089;-70
2021/11/26 08:04:30;;;;;;;12.57;1.67;;;;;;;15.74;48.44;98212.56;4416164;32;20458;-71
2021/11/26 08:06:56;;;;;;;8.77;1.45;;;;;;;15.33;48.60;98214.03;4410710;32;20487;-72
2021/11/26 08:09:22;;;;;;;6.12;0.98;;;;;;;15.75;48.08;98199.16;4414380;32;20114;-72
2021/11/26 08:11:49;;;;;;;4.60;1.00;;;;;;;15.19;48.00;98209.56;4415457;32;20081;-72
2021/11/26 08:14:17;;;;;;;9.30;1.30;;;;;;;15.68;46.98;98197.66;4414273;32;22473;-71
2021/11/26 08:16:43;;;;;;;8.05;0.90;;;;;;;15.50;47.43;98217.50;4411352;32;20577;-71
2021/11/26 08:19:09;;;;;;;8.45;1.42;;;;;;;15.31;47.13;98242.91;4413819;32;20064;-71
2021/11/26 08:21:35;;;;;;;6.95;1.27;;;;;;;15.70;46.42;98237.59;4414856;32;20455;-70
2021/11/26 08:24:03;;;;;;;6.70;1.10;;;;;;;14.80;47.62;98243.91;4404860;32;20688;-70
2021/11/26 08:26:29;;;;;;;8.77;1.23;;;;;;;15.47;46.89;98241.22;4410742;32;20081;-70
2021/11/26 08:28:56;;;;;;;9.15;1.48;;;;;;;15.36;46.41;98218.63;4411077;32;20108;-72
2021/11/26 08:31:23;;;;;;;11.80;1.50;;;;;;;15.13;46.91;98225.84;4415412;32;20073;-70
2021/11/26 08:33:48;;;;;;;13.75;1.83;;;;;;;14.72;47.33;98231.59;4414565;32;20116;-72
2021/11/26 08:36:15;;;;;;;5.45;1.12;;;;;;;15.33;46.38;98231.81;4412305;32;20140;-72
2021/11/26 08:38:41;;;;;;;8.40;1.55;;;;;;;15.48;45.92;98214.41;4410708;32;20691;-69
2021/11/26 08:41:07;;;;;;;10.38;1.58;;;;;;;15.55;45.87;98220.25;4418955;32;20082;-70
2021/11/26 08:43:33;;;;;;;6.35;1.30;;;;;;;15.44;46.31;98225.28;4417553;32;20099;-70
2021/11/26 08:46:00;;;;;;;7.70;1.02;;;;;;;15.50;45.51;98229.59;4415001;32;20081;-71
2021/11/26 08:48:26;;;;;;;7.78;0.95;;;;;;;15.10;45.91;98222.00;4416128;32;20991;-70
2021/11/26 08:50:52;;;;;;;12.95;1.30;;;;;;;14.65;46.73;98229.34;4418206;32;20045;-69
2021/11/26 08:53:19;;;;;;;8.10;1.00;;;;;;;15.28;46.23;98231.88;4418674;32;20235;-69
2021/11/26 08:55:50;;;;;;;13.43;1.25;;;;;;;14.94;46.00;98244.81;4413638;32;20049;-70
2021/11/26 08:58:16;;;;;;;10.48;0.95;;;;;;;14.77;46.29;98267.59;4415194;32;20557;-70
2021/11/26 09:00:43;;;;;;;13.62;1.15;;;;;;;14.93;46.33;98260.25;4419176;32;20045;-70
2021/11/26 09:03:09;;;;;;;12.18;1.62;;;;;;;15.07;46.19;98248.53;4418772;32;20061;-70
2021/11/26 09:05:36;;;;;;;7.47;1.08;;;;;;;15.20;45.89;98245.88;4417598;32;20099;-70
2021/11/26 09:08:02;;;;;;;8.60;1.15;;;;;;;15.14;46.11;98255.69;4416605;32;20181;-70
2021/11/26 09:10:34;;;;;;;10.90;1.67;;;;;;;15.53;45.93;98262.53;4420858;32;20048;-70
2021/11/26 09:13:00;;;;;;;14.75;1.58;;;;;;;15.88;44.93;98250.28;4419234;32;20561;-70
2021/11/26 09:15:26;;;;;;;13.85;1.95;;;;;;;15.42;45.36;98261.88;4420373;32;20090;-70
2021/11/26 09:17:53;;;;;;;12.52;1.35;;;;;;;15.48;45.27;98248.44;4416772;32;20085;-70
2021/11/26 09:20:19;;;;;;;12.52;1.30;;;;;;;15.83;44.79;98251.88;4420230;32;20254;-70
2021/11/26 09:22:45;;;;;;;5.82;1.20;;;;;;;15.56;44.71;98244.47;4418145;32;20029;-70
2021/11/26 09:25:11;;;;;;;9.05;1.00;;;;;;;15.62;44.74;98230.25;4418340;32;20248;-70
2021/11/26 09:27:37;;;;;;;8.43;1.12;;;;;;;15.76;44.44;98249.66;4411795;32;20073;-70
2021/11/26 09:30:06;;;;;;;10.30;1.33;;;;;;;15.88;43.84;98224.75;4419436;32;20099;-70
2021/11/26 09:32:32;;;;;;;13.02;2.05;;;;;;;16.31;42.99;98216.16;4417137;32;20037;-70
2021/11/26 09:34:58;;;;;;;10.23;1.50;;;;;;;16.57;42.57;98224.84;4413764;32;20633;-69
2021/11/26 09:37:24;;;;;;;8.65;1.90;;;;;;;16.54;42.24;98229.50;4413682;32;20146;-69
2021/11/26 09:39:49;;;;;;;7.20;1.62;;;;;;;17.22;41.87;98231.50;4411685;32;20132;-68
2021/11/26 09:42:16;;;;;;;8.82;2.00;;;;;;;17.55;41.35;98236.56;4415089;32;20136;-69
2021/11/26 09:44:44;;;;;;;9.75;1.30;;;;;;;17.00;40.75;98231.09;4418861;32;20038;-69
2021/11/26 09:47:10;;;;;;;9.52;1.23;;;;;;;17.64;40.10;98226.81;4417846;32;20447;-69
2021/11/26 09:49:36;;;;;;;3.40;0.70;;;;;;;17.70;39.39;98216.87;4414858;32;20072;-69
2021/11/26 09:52:03;;;;;;;6.82;1.23;;;;;;;18.09;38.66;98213.22;4413905;32;21249;-70
2021/11/26 09:54:37;;;;;;;7.90;1.10;;;;;;;17.59;39.72;98214.28;4415318;32;20529;-69
2021/11/26 09:57:04;;;;;;;10.45;1.42;;;;;;;18.08;38.77;98211.69;4416363;32;20103;-70
2021/11/26 09:59:29;;;;;;;7.62;1.12;;;;;;;18.24;39.33;98224.78;4411074;32;20085;-70
2021/11/26 10:01:56;;;;;;;7.45;1.40;;;;;;;17.60;38.83;98227.16;4416176;32;20568;-70
2021/11/26 10:04:22;;;;;;;10.35;1.30;;;;;;;17.81;38.74;98210.19;4418920;32;20084;-71
2021/11/26 10:06:48;;;;;;;5.72;1.10;;;;;;;18.02;38.84;98205.34;4416495;32;20294;-70
2021/11/26 10:09:18;;;;;;;8.32;1.33;;;;;;;17.93;38.47;98200.13;4417480;32;20069;-69
2021/11/26 10:11:50;;;;;;;4.97;1.00;;;;;;;18.34;37.87;98205.16;4418938;32;20092;-71
2021/11/26 10:17:09;;;;;;;5.53;0.90;;;;;;;19.12;36.71;98202.72;3982332;31;15020722;-72
2021/11/26 10:19:39;;;;;;;9.52;1.20;;;;;;;18.74;36.62;98203.69;4434932;32;20066;-72
2021/11/26 10:27:42;;;;;;;5.60;0.90;;;;;;;20.44;33.79;98198.19;3966942;32;15021996;-72
2021/11/26 10:30:12;;;;;;;7.32;1.00;;;;;;;20.44;33.79;98198.19;4422423;32;20196;-72
2021/11/26 10:32:38;;;;;;;11.38;1.37;;;;;;;19.55;34.95;98190.72;4424724;32;20099;-72
2021/11/26 10:35:04;;;;;;;7.10;1.40;;;;;;;19.82;34.67;98186.28;4428025;32;20101;-71
2021/11/26 10:37:29;;;;;;;9.35;1.40;;;;;;;19.68;34.77;98184.88;4426803;32;20093;-71
2021/11/26 10:39:55;;;;;;;7.37;1.45;;;;;;;18.98;35.97;98187.03;4430782;32;20171;-71
2021/11/26 10:42:27;;;;;;;6.07;1.10;;;;;;;19.54;35.09;98181.38;4429198;32;20070;-72
2021/11/26 10:44:58;;;;;;;6.30;1.17;;;;;;;19.27;35.58;98185.00;4430463;32;20077;-70
2021/11/26 10:47:45;;;;;;;7.40;2.65;;;;;;;18.42;36.92;98177.56;4430324;32;20073;-71
2021/11/26 10:50:55;;;;;;;3.08;1.05;;;;;;;18.25;37.30;98171.47;4430097;32;20033;-70
2021/11/26 11:01:13;;;;;;;6.62;1.10;;;;;;;19.75;35.14;98162.09;3973826;32;15075573;-71
2021/11/26 11:03:39;;;;;;;7.80;1.15;;;;;;;19.75;35.14;98162.09;4430177;32;20065;-72
2021/11/26 11:06:25;;;;;;;7.68;0.85;;;;;;;19.30;35.04;98161.09;4430780;32;20109;-71
2021/11/26 11:09:08;;;;;;;;;;;;;;;19.72;34.61;98165.31;4429920;32;20081;-71
2021/11/26 11:11:34;;;;;;;4.55;0.70;;;;;;;20.36;33.25;98163.13;4426819;32;19988;-72
2021/11/26 11:14:12;;;;;;;7.20;1.00;;;;;;;20.29;32.86;98155.31;4427214;32;20080;-72
2021/11/26 11:16:55;;;;;;;6.82;1.40;;;;;;;20.37;33.16;98153.22;4425515;32;20065;-71
2021/11/26 11:19:24;;;;;;;7.78;1.00;;;;;;;19.36;34.33;98150.28;4426168;32;20132;-71
2021/11/26 11:21:53;;;;;;;6.47;1.20;;;;;;;19.59;34.52;98143.38;4426042;32;20050;-71
2021/11/26 11:24:20;;;;;;;5.75;1.37;;;;;;;19.96;33.84;98142.03;4424779;32;20166;-70
2021/11/26 11:26:48;;;;;;;7.68;1.00;;;;;;;20.46;33.49;98144.09;4425901;32;20127;-70
2021/11/26 11:29:17;;;;;;;4.82;0.90;;;;;;;21.64;31.68;98140.25;4422121;32;20076;-72
2021/11/26 11:31:44;;;;;;;6.93;1.12;;;;;;;21.44;30.54;98124.84;4424481;32;20663;-71
2021/11/26 11:34:13;;;;;;;3.97;0.62;;;;;;;20.87;30.93;98140.91;4423564;32;20045;-71
2021/11/26 11:36:41;;;;;;;6.12;1.10;;;;;;;20.14;32.46;98138.12;4422045;32;20034;-71
2021/11/26 11:39:10;;;;;;;6.35;0.90;;;;;;;20.06;32.61;98140.16;4424736;32;20548;-71
2021/11/26 11:41:45;;;;;;;5.55;1.08;;;;;;;20.73;32.21;98128.13;4426289;32;20480;-70
2021/11/26 11:44:21;;;;;;;8.27;1.40;;;;;;;21.45;31.39;98142.78;4422430;32;20256;-70
2021/11/26 11:46:50;;;;;;;2.78;0.68;;;;;;;22.30;29.68;98137.69;4425851;32;20041;-70
2021/11/26 11:49:33;;;;;;;16.75;1.20;;;;;;;22.15;29.91;98139.91;4418217;32;20099;-70